createdAt,value
2023-03-25T00:00:28.089Z,4
2023-03-25T00:01:34.884Z,5
2023-03-25T00:02:41.794Z,4
2023-03-25T00:03:48.627Z,4
2023-03-25T00:04:55.561Z,5
2023-03-25T00:06:02.397Z,5
2023-03-25T00:07:09.445Z,5
2023-03-25T00:08:17.070Z,4
2023-03-25T00:09:23.962Z,4
2023-03-25T00:10:30.799Z,4
2023-03-25T00:11:37.673Z,3
2023-03-25T00:12:44.501Z,4
2023-03-25T00:13:51.382Z,4
2023-03-25T00:14:58.380Z,3
2023-03-25T00:16:05.218Z,4
2023-03-25T00:17:12.352Z,4
2023-03-25T00:18:19.242Z,3
2023-03-25T00:19:26.095Z,4
2023-03-25T00:20:33.087Z,4
2023-03-25T00:21:39.992Z,4
2023-03-25T00:22:49.366Z,3
2023-03-25T00:23:56.158Z,4
2023-03-25T00:25:03.118Z,4
2023-03-25T00:26:12.669Z,3
2023-03-25T00:27:19.472Z,4
2023-03-25T00:28:26.424Z,4
2023-03-25T00:29:33.309Z,3
2023-03-25T00:30:40.132Z,4
2023-03-25T00:31:46.972Z,4
2023-03-25T00:32:53.866Z,3
2023-03-25T00:34:03.637Z,3
2023-03-25T00:35:10.453Z,3
2023-03-25T00:36:17.442Z,3
2023-03-25T00:37:24.217Z,4
2023-03-25T00:38:31.154Z,4
2023-03-25T00:39:38.812Z,4
2023-03-25T00:40:45.655Z,4
2023-03-25T00:41:52.447Z,4
2023-03-25T00:42:59.309Z,4
2023-03-25T00:44:06.117Z,4
2023-03-25T00:45:13.008Z,4
2023-03-25T00:46:19.865Z,4
2023-03-25T00:47:26.684Z,4
2023-03-25T00:48:33.507Z,4
2023-03-25T00:49:40.360Z,4
2023-03-25T00:50:48.038Z,3
2023-03-25T00:51:54.871Z,4
2023-03-25T00:53:01.666Z,4
2023-03-25T00:54:08.540Z,4
2023-03-25T00:55:15.400Z,4
2023-03-25T00:56:22.240Z,5
2023-03-25T00:57:29.031Z,4
2023-03-25T00:58:35.806Z,4
2023-03-25T00:59:42.735Z,5
2023-03-25T01:00:49.647Z,4
2023-03-25T01:01:56.514Z,4
2023-03-25T01:03:03.431Z,4
2023-03-25T01:04:10.289Z,4
2023-03-25T01:05:17.078Z,4
2023-03-25T01:06:23.906Z,4
2023-03-25T01:07:35.800Z,4
2023-03-25T01:08:42.667Z,4
2023-03-25T01:09:50.294Z,5
2023-03-25T01:10:57.242Z,4
2023-03-25T01:12:04.137Z,4
2023-03-25T01:13:10.982Z,4
2023-03-25T01:14:17.921Z,4
2023-03-25T01:15:24.880Z,4
2023-03-25T01:16:31.731Z,5
2023-03-25T01:17:38.601Z,5
2023-03-25T01:18:45.456Z,5
2023-03-25T01:19:52.249Z,5
2023-03-25T01:20:59.174Z,5
2023-03-25T01:22:06.141Z,5
2023-03-25T01:23:12.931Z,5
2023-03-25T01:24:19.705Z,5
2023-03-25T01:25:26.564Z,5
2023-03-25T01:26:33.413Z,4
2023-03-25T01:27:40.246Z,4
2023-03-25T01:28:47.066Z,5
2023-03-25T01:29:53.970Z,4
2023-03-25T01:31:00.795Z,4
2023-03-25T01:32:07.778Z,4
2023-03-25T01:33:14.593Z,4
2023-03-25T01:34:21.446Z,4
2023-03-25T01:35:28.289Z,4
2023-03-25T01:36:35.165Z,4
2023-03-25T01:37:41.944Z,4
2023-03-25T01:38:48.767Z,4
2023-03-25T01:39:55.550Z,5
2023-03-25T01:41:02.520Z,4
2023-03-25T01:42:09.516Z,4
2023-03-25T01:43:17.196Z,3
2023-03-25T01:44:24.101Z,3
2023-03-25T01:45:30.900Z,3
2023-03-25T01:46:38.487Z,3
2023-03-25T01:47:48.116Z,3
2023-03-25T01:48:54.955Z,3
2023-03-25T01:50:01.841Z,3
2023-03-25T01:51:08.783Z,3
2023-03-25T01:52:15.664Z,3
2023-03-25T01:53:25.392Z,3
2023-03-25T01:54:32.249Z,3
2023-03-25T01:55:39.017Z,3
2023-03-25T01:56:45.942Z,2
2023-03-25T01:57:52.656Z,3
2023-03-25T01:58:59.499Z,3
2023-03-25T02:00:06.408Z,3
2023-03-25T02:01:14.365Z,2
2023-03-25T02:02:21.260Z,3
2023-03-25T02:03:28.214Z,3
2023-03-25T02:04:35.075Z,3
2023-03-25T02:05:50.048Z,3
2023-03-25T02:07:01.676Z,3
2023-03-25T02:08:08.488Z,3
2023-03-25T02:09:15.315Z,3
2023-03-25T02:10:22.147Z,2
2023-03-25T02:11:29.514Z,2
2023-03-25T02:12:36.212Z,3
2023-03-25T02:13:43.017Z,3
2023-03-25T02:14:49.908Z,2
2023-03-25T02:15:56.774Z,3
2023-03-25T02:17:11.304Z,2
2023-03-25T02:18:23.312Z,3
2023-03-25T02:19:30.076Z,3
2023-03-25T02:20:44.872Z,3
2023-03-25T02:22:01.833Z,3
2023-03-25T02:23:18.870Z,3
2023-03-25T02:24:35.808Z,3
2023-03-25T02:25:53.038Z,3
2023-03-25T02:27:04.812Z,3
2023-03-25T02:28:11.656Z,3
2023-03-25T02:29:28.599Z,3
2023-03-25T02:30:40.520Z,3
2023-03-25T02:31:55.304Z,4
2023-03-25T02:33:07.735Z,4
2023-03-25T02:34:24.823Z,4
2023-03-25T02:35:41.808Z,4
2023-03-25T02:36:53.711Z,4
2023-03-25T02:38:10.655Z,4
2023-03-25T02:39:22.524Z,4
2023-03-25T02:40:37.276Z,4
2023-03-25T02:41:49.790Z,4
2023-03-25T02:42:56.583Z,4
2023-03-25T02:44:13.539Z,4
2023-03-25T02:45:30.487Z,6
2023-03-25T02:46:37.304Z,6
2023-03-25T02:47:44.224Z,6
2023-03-25T02:48:50.947Z,6
2023-03-25T02:50:02.828Z,6
2023-03-25T02:51:17.428Z,5
2023-03-25T02:52:24.455Z,6
2023-03-25T02:53:36.380Z,6
2023-03-25T02:54:43.130Z,5
2023-03-25T02:55:50.123Z,5
2023-03-25T02:56:56.866Z,5
2023-03-25T02:58:03.676Z,4
2023-03-25T02:59:10.655Z,5
2023-03-25T03:00:17.521Z,5
2023-03-25T03:01:24.397Z,6
2023-03-25T03:02:31.400Z,6
2023-03-25T03:03:38.282Z,5
2023-03-25T03:04:45.110Z,5
2023-03-25T03:05:52.139Z,6
2023-03-25T03:06:59.009Z,6
2023-03-25T03:08:05.831Z,6
2023-03-25T03:09:16.208Z,6
2023-03-25T03:10:28.104Z,6
2023-03-25T03:11:39.990Z,6
2023-03-25T03:12:49.360Z,7
2023-03-25T03:14:04.201Z,10
2023-03-25T03:15:16.049Z,10
2023-03-25T03:16:30.780Z,9
2023-03-25T03:17:47.699Z,8
2023-03-25T03:19:00.293Z,7
2023-03-25T03:20:12.133Z,8
2023-03-25T03:21:29.177Z,7
2023-03-25T03:22:36.056Z,7
2023-03-25T03:23:44.741Z,7
2023-03-25T03:24:55.188Z,7
2023-03-25T03:26:07.488Z,7
2023-03-25T03:27:20.130Z,8
2023-03-25T03:28:29.500Z,8
2023-03-25T03:29:42.673Z,7
2023-03-25T03:30:49.512Z,7
2023-03-25T03:32:07.315Z,6
2023-03-25T03:33:21.247Z,6
2023-03-25T03:34:29.002Z,7
2023-03-25T03:35:43.520Z,6
2023-03-25T03:36:58.327Z,6
2023-03-25T03:38:05.149Z,6
2023-03-25T03:39:15.167Z,7
2023-03-25T03:40:22.082Z,7
2023-03-25T03:41:28.948Z,7
2023-03-25T03:42:35.715Z,7
2023-03-25T03:43:45.318Z,6
2023-03-25T03:44:55.134Z,7
2023-03-25T03:46:02.008Z,6
2023-03-25T03:47:09.133Z,5
2023-03-25T03:48:15.856Z,5
2023-03-25T03:49:28.043Z,5
2023-03-25T03:50:39.984Z,5
2023-03-25T03:51:46.996Z,5
2023-03-25T03:52:57.054Z,5
2023-03-25T03:54:05.822Z,5
2023-03-25T03:55:17.762Z,5
2023-03-25T03:56:30.664Z,5
2023-03-25T03:57:40.578Z,5
2023-03-25T03:58:47.390Z,5
2023-03-25T03:59:54.262Z,6
2023-03-25T04:01:11.242Z,6
2023-03-25T04:02:18.112Z,6
2023-03-25T04:03:31.601Z,6
2023-03-25T04:04:46.588Z,6
2023-03-25T04:05:53.502Z,5
2023-03-25T04:07:00.542Z,6
2023-03-25T04:08:10.192Z,7
2023-03-25T04:09:17.037Z,7
2023-03-25T04:10:29.915Z,6
2023-03-25T04:11:36.654Z,7
2023-03-25T04:12:43.533Z,7
2023-03-25T04:13:56.053Z,8
2023-03-25T04:15:02.872Z,8
2023-03-25T04:16:09.912Z,8
2023-03-25T04:17:16.794Z,9
2023-03-25T04:18:23.783Z,9
2023-03-25T04:19:30.471Z,8
2023-03-25T04:20:37.366Z,9
2023-03-25T04:21:47.235Z,9
2023-03-25T04:22:54.047Z,8
2023-03-25T04:24:01.067Z,9
2023-03-25T04:25:08.058Z,10
2023-03-25T04:26:14.853Z,9
2023-03-25T04:27:21.604Z,11
2023-03-25T04:28:28.502Z,11
2023-03-25T04:29:35.349Z,11
2023-03-25T04:30:42.185Z,11
2023-03-25T04:31:49.092Z,11
2023-03-25T04:32:55.873Z,11
2023-03-25T04:34:02.730Z,11
2023-03-25T04:35:09.519Z,12
2023-03-25T04:36:19.137Z,11
2023-03-25T04:37:25.976Z,12
2023-03-25T04:38:32.834Z,11
2023-03-25T04:39:39.747Z,10
2023-03-25T04:40:46.694Z,11
2023-03-25T04:41:53.362Z,10
2023-03-25T04:43:00.280Z,9
2023-03-25T04:44:07.138Z,10
2023-03-25T04:45:13.961Z,11
2023-03-25T04:46:20.750Z,12
2023-03-25T04:47:27.663Z,13
2023-03-25T04:48:34.516Z,14
2023-03-25T04:49:41.416Z,16
2023-03-25T04:50:48.235Z,15
2023-03-25T04:51:55.010Z,12
2023-03-25T04:53:01.919Z,12
2023-03-25T04:54:08.733Z,13
2023-03-25T04:55:15.710Z,12
2023-03-25T04:56:22.551Z,11
2023-03-25T04:57:29.361Z,10
2023-03-25T04:58:36.230Z,9
2023-03-25T04:59:43.087Z,9
2023-03-25T05:00:49.922Z,9
2023-03-25T05:01:56.742Z,8
2023-03-25T05:03:03.764Z,9
2023-03-25T05:04:10.594Z,10
2023-03-25T05:05:17.487Z,12
2023-03-25T05:06:26.859Z,11
2023-03-25T05:07:36.532Z,12
2023-03-25T05:08:43.434Z,12
2023-03-25T05:09:50.245Z,11
2023-03-25T05:10:57.043Z,12
2023-03-25T05:12:03.924Z,12
2023-03-25T05:13:10.770Z,12
2023-03-25T05:14:17.789Z,12
2023-03-25T05:15:24.734Z,13
2023-03-25T05:16:31.708Z,12
2023-03-25T05:17:38.520Z,12
2023-03-25T05:18:46.220Z,11
2023-03-25T05:19:53.073Z,12
2023-03-25T05:20:59.982Z,13
2023-03-25T05:22:06.947Z,12
2023-03-25T05:23:13.741Z,12
2023-03-25T05:24:20.584Z,12
2023-03-25T05:25:27.383Z,12
2023-03-25T05:26:34.185Z,11
2023-03-25T05:27:41.031Z,11
2023-03-25T05:28:47.856Z,11
2023-03-25T05:29:54.696Z,11
2023-03-25T05:31:01.505Z,10
2023-03-25T05:32:13.328Z,10
2023-03-25T05:33:23.075Z,10
2023-03-25T05:34:29.905Z,9
2023-03-25T05:35:37.612Z,9
2023-03-25T05:36:44.496Z,9
2023-03-25T05:37:51.381Z,8
2023-03-25T05:38:59.000Z,8
2023-03-25T05:40:14.848Z,9
2023-03-25T05:41:13.187Z,8
2023-03-25T05:42:19.986Z,8
2023-03-25T05:43:26.933Z,8
2023-03-25T05:44:33.906Z,8
2023-03-25T05:45:41.518Z,8
2023-03-25T05:46:48.326Z,8
2023-03-25T05:47:55.113Z,7
2023-03-25T05:49:01.969Z,7
2023-03-25T05:50:08.817Z,8
2023-03-25T05:51:16.485Z,8
2023-03-25T05:52:26.240Z,6
2023-03-25T05:53:33.115Z,7
2023-03-25T05:54:39.905Z,8
2023-03-25T05:55:46.725Z,8
2023-03-25T05:56:53.721Z,8
2023-03-25T05:58:00.551Z,8
2023-03-25T05:59:07.366Z,7
2023-03-25T06:00:14.212Z,7
2023-03-25T06:01:31.686Z,8
2023-03-25T06:02:28.030Z,8
2023-03-25T06:03:34.983Z,8
2023-03-25T06:04:41.771Z,8
2023-03-25T06:05:48.844Z,8
2023-03-25T06:06:55.517Z,8
2023-03-25T06:08:02.357Z,8
2023-03-25T06:09:09.208Z,7
2023-03-25T06:10:16.023Z,8
2023-03-25T06:11:23.009Z,8
2023-03-25T06:12:29.821Z,7
2023-03-25T06:13:36.667Z,8
2023-03-25T06:14:43.635Z,8
2023-03-25T06:15:50.731Z,8
2023-03-25T06:16:57.494Z,8
2023-03-25T06:18:04.341Z,7
2023-03-25T06:19:11.135Z,8
2023-03-25T06:20:21.467Z,9
2023-03-25T06:21:28.428Z,8
2023-03-25T06:22:38.297Z,8
2023-03-25T06:23:47.712Z,9
2023-03-25T06:24:54.607Z,8
2023-03-25T06:26:01.439Z,8
2023-03-25T06:27:10.708Z,8
2023-03-25T06:28:17.646Z,7
2023-03-25T06:29:24.507Z,7
2023-03-25T06:30:31.382Z,8
2023-03-25T06:31:38.314Z,7
2023-03-25T06:32:45.372Z,8
2023-03-25T06:33:52.252Z,9
2023-03-25T06:34:59.113Z,7
2023-03-25T06:36:06.092Z,8
2023-03-25T06:37:13.068Z,8
2023-03-25T06:38:19.980Z,9
2023-03-25T06:39:26.856Z,8
2023-03-25T06:40:33.760Z,8
2023-03-25T06:41:40.615Z,7
2023-03-25T06:42:47.472Z,8
2023-03-25T06:43:54.376Z,7
2023-03-25T06:45:01.153Z,8
2023-03-25T06:46:08.322Z,7
2023-03-25T06:47:15.116Z,7
2023-03-25T06:48:21.960Z,7
2023-03-25T06:49:28.840Z,7
2023-03-25T06:50:35.748Z,6
2023-03-25T06:51:42.601Z,6
2023-03-25T06:52:49.548Z,6
2023-03-25T06:53:57.239Z,7
2023-03-25T06:55:04.076Z,5
2023-03-25T06:56:11.084Z,5
2023-03-25T06:57:17.940Z,5
2023-03-25T06:58:24.917Z,5
2023-03-25T06:59:31.777Z,6
2023-03-25T07:00:38.620Z,6
2023-03-25T07:01:45.568Z,5
2023-03-25T07:02:52.462Z,6
2023-03-25T07:03:59.287Z,6
2023-03-25T07:05:06.235Z,5
2023-03-25T07:06:13.046Z,5
2023-03-25T07:07:19.902Z,4
2023-03-25T07:08:26.818Z,5
2023-03-25T07:09:33.612Z,6
2023-03-25T07:10:40.491Z,6
2023-03-25T07:11:48.142Z,6
2023-03-25T07:12:54.981Z,7
2023-03-25T07:14:02.035Z,7
2023-03-25T07:15:09.000Z,7
2023-03-25T07:16:15.867Z,7
2023-03-25T07:17:25.459Z,6
2023-03-25T07:18:32.238Z,7
2023-03-25T07:19:39.858Z,6
2023-03-25T07:20:47.586Z,6
2023-03-25T07:21:54.470Z,6
2023-03-25T07:23:01.471Z,5
2023-03-25T07:24:08.557Z,5
2023-03-25T07:25:15.374Z,5
2023-03-25T07:26:22.223Z,5
2023-03-25T07:27:28.991Z,5
2023-03-25T07:28:35.945Z,5
2023-03-25T07:29:42.766Z,6
2023-03-25T07:30:49.670Z,5
2023-03-25T07:31:56.512Z,5
2023-03-25T07:33:03.369Z,5
2023-03-25T07:34:10.263Z,6
2023-03-25T07:35:17.127Z,5
2023-03-25T07:36:23.961Z,5
2023-03-25T07:37:30.765Z,5
2023-03-25T07:38:37.583Z,6
2023-03-25T07:39:44.473Z,5
2023-03-25T07:40:51.471Z,5
2023-03-25T07:41:58.431Z,5
2023-03-25T07:43:05.187Z,5
2023-03-25T07:44:12.024Z,6
2023-03-25T07:45:18.841Z,6
2023-03-25T07:46:25.764Z,5
2023-03-25T07:47:33.361Z,5
2023-03-25T07:48:41.068Z,5
2023-03-25T07:49:47.887Z,5
2023-03-25T07:50:54.723Z,5
2023-03-25T07:52:01.733Z,5
2023-03-25T07:53:09.476Z,5
2023-03-25T07:54:16.317Z,6
2023-03-25T07:55:24.044Z,5
2023-03-25T07:56:30.927Z,5
2023-03-25T07:57:37.725Z,5
2023-03-25T07:58:44.743Z,5
2023-03-25T07:59:51.589Z,4
2023-03-25T08:00:58.453Z,5
2023-03-25T08:02:05.322Z,4
2023-03-25T08:03:12.353Z,5
2023-03-25T08:04:19.249Z,5
2023-03-25T08:05:26.117Z,5
2023-03-25T08:06:33.021Z,4
2023-03-25T08:07:40.061Z,5
2023-03-25T08:08:46.884Z,5
2023-03-25T08:09:53.693Z,5
2023-03-25T08:11:01.357Z,5
2023-03-25T08:12:08.307Z,5
2023-03-25T08:13:15.154Z,5
2023-03-25T08:14:21.970Z,5
2023-03-25T08:15:28.881Z,5
2023-03-25T08:16:35.709Z,4
2023-03-25T08:17:42.648Z,4
2023-03-25T08:18:49.541Z,4
2023-03-25T08:19:56.462Z,4
2023-03-25T08:21:03.328Z,4
2023-03-25T08:22:10.235Z,4
2023-03-25T08:23:19.487Z,4
2023-03-25T08:24:24.835Z,4
2023-03-25T08:25:31.699Z,4
2023-03-25T08:26:38.533Z,4
2023-03-25T08:27:45.293Z,4
2023-03-25T08:28:52.168Z,4
2023-03-25T08:29:59.078Z,4
2023-03-25T08:31:05.909Z,4
2023-03-25T08:32:13.605Z,4
2023-03-25T08:33:20.473Z,4
2023-03-25T08:34:28.602Z,4
2023-03-25T08:35:34.743Z,4
2023-03-25T08:36:41.585Z,4
2023-03-25T08:37:48.418Z,4
2023-03-25T08:38:55.226Z,4
2023-03-25T08:40:02.105Z,4
2023-03-25T08:41:09.129Z,4
2023-03-25T08:42:17.033Z,4
2023-03-25T08:43:23.940Z,3
2023-03-25T08:44:30.773Z,4
2023-03-25T08:45:37.575Z,4
2023-03-25T08:46:44.482Z,4
2023-03-25T08:47:51.291Z,4
2023-03-25T08:48:58.198Z,4
2023-03-25T08:50:05.015Z,3
2023-03-25T08:51:12.946Z,3
2023-03-25T08:52:19.802Z,4
2023-03-25T08:53:27.572Z,3
2023-03-25T08:54:34.574Z,3
2023-03-25T08:55:41.436Z,3
2023-03-25T08:56:48.344Z,3
2023-03-25T08:57:56.391Z,3
2023-03-25T08:59:06.056Z,3
2023-03-25T09:00:12.942Z,2
2023-03-25T09:01:19.884Z,2
2023-03-25T09:02:26.728Z,3
2023-03-25T09:03:33.570Z,7
2023-03-25T09:04:40.473Z,14
2023-03-25T09:05:47.320Z,11
2023-03-25T09:07:11.675Z,5
2023-03-25T09:08:01.081Z,2
2023-03-25T09:09:08.054Z,3
2023-03-25T09:10:14.889Z,5
2023-03-25T09:11:27.233Z,4
2023-03-25T09:12:28.726Z,2
2023-03-25T09:13:35.628Z,3
2023-03-25T09:14:42.462Z,8
2023-03-25T09:15:49.654Z,7
2023-03-25T09:16:58.056Z,4
2023-03-25T09:18:04.860Z,3
2023-03-25T09:19:11.605Z,3
2023-03-25T09:20:18.479Z,3
2023-03-25T09:21:29.695Z,2
2023-03-25T09:22:36.487Z,2
2023-03-25T09:23:43.363Z,1
2023-03-25T09:24:50.102Z,2
2023-03-25T09:25:56.879Z,3
2023-03-25T09:27:03.702Z,2
2023-03-25T09:28:10.479Z,2
2023-03-25T09:29:17.324Z,2
2023-03-25T09:30:24.152Z,2
2023-03-25T09:31:31.024Z,2
2023-03-25T09:32:37.900Z,2
2023-03-25T09:33:44.666Z,2
2023-03-25T09:34:51.613Z,2
2023-03-25T09:35:58.457Z,2
2023-03-25T09:37:05.248Z,2
2023-03-25T09:38:12.036Z,1
2023-03-25T09:39:18.827Z,2
2023-03-25T09:40:25.724Z,1
2023-03-25T09:41:32.635Z,2
2023-03-25T09:42:44.482Z,1
2023-03-25T09:43:57.225Z,1
2023-03-25T09:45:14.148Z,1
2023-03-25T09:46:26.119Z,1
2023-03-25T09:47:32.898Z,1
2023-03-25T09:48:39.715Z,1
2023-03-25T09:49:46.565Z,2
2023-03-25T09:50:53.371Z,2
2023-03-25T09:52:05.873Z,2
2023-03-25T09:53:17.737Z,2
2023-03-25T09:54:29.663Z,1
2023-03-25T09:55:36.423Z,2
2023-03-25T09:56:43.212Z,2
2023-03-25T09:57:49.968Z,1
2023-03-25T09:58:56.779Z,1
2023-03-25T10:00:08.658Z,2
2023-03-25T10:01:18.500Z,2
2023-03-25T10:02:30.405Z,3
2023-03-25T10:03:39.802Z,2
2023-03-25T10:04:56.808Z,1
2023-03-25T10:06:13.711Z,1
2023-03-25T10:07:23.268Z,2
2023-03-25T10:08:38.180Z,4
2023-03-25T10:09:55.040Z,2
2023-03-25T10:11:04.308Z,4
2023-03-25T10:12:11.048Z,1
2023-03-25T10:13:25.692Z,1
2023-03-25T10:14:35.124Z,1
2023-03-25T10:15:49.978Z,1
2023-03-25T10:16:59.677Z,1
2023-03-25T10:18:16.601Z,1
2023-03-25T10:19:31.367Z,3
2023-03-25T10:20:46.238Z,2
2023-03-25T10:21:58.110Z,1
2023-03-25T10:23:07.844Z,1
2023-03-25T10:24:14.613Z,1
2023-03-25T10:25:21.517Z,1
2023-03-25T10:26:28.276Z,1
2023-03-25T10:27:40.185Z,2
2023-03-25T10:28:50.036Z,2
2023-03-25T10:29:59.838Z,3
2023-03-25T10:31:16.858Z,3
2023-03-25T10:32:23.734Z,2
2023-03-25T10:33:33.534Z,2
2023-03-25T10:34:40.295Z,1
2023-03-25T10:35:47.201Z,1
2023-03-25T10:36:53.956Z,1
2023-03-25T10:38:02.026Z,1
2023-03-25T10:39:15.457Z,1
2023-03-25T10:40:22.300Z,1
2023-03-25T10:41:29.127Z,1
2023-03-25T10:42:38.402Z,4
2023-03-25T10:43:45.258Z,2
2023-03-25T10:44:52.074Z,2
2023-03-25T10:46:00.135Z,2
2023-03-25T10:47:12.038Z,2
2023-03-25T10:48:18.812Z,2
2023-03-25T10:49:25.780Z,2
2023-03-25T10:50:32.594Z,2
2023-03-25T10:51:39.450Z,10
2023-03-25T10:52:46.194Z,8
2023-03-25T10:53:53.075Z,7
2023-03-25T10:54:59.853Z,3
2023-03-25T10:56:06.755Z,6
2023-03-25T10:57:16.366Z,2
2023-03-25T10:58:23.160Z,2
2023-03-25T10:59:29.910Z,2
2023-03-25T11:00:41.784Z,2
2023-03-25T11:01:48.511Z,2
2023-03-25T11:02:55.311Z,2
2023-03-25T11:04:02.267Z,1
2023-03-25T11:05:09.131Z,2
2023-03-25T11:06:16.049Z,2
2023-03-25T11:07:30.822Z,1
2023-03-25T11:08:40.497Z,1
2023-03-25T11:09:57.407Z,1
2023-03-25T11:11:14.400Z,2
2023-03-25T11:12:27.552Z,1
2023-03-25T11:13:28.089Z,1
2023-03-25T11:14:34.854Z,2
2023-03-25T11:15:41.636Z,1
2023-03-25T11:16:48.377Z,1
2023-03-25T11:17:55.380Z,1
2023-03-25T11:19:05.215Z,2
2023-03-25T11:20:11.971Z,1
2023-03-25T11:21:21.612Z,2
2023-03-25T11:22:28.498Z,2
2023-03-25T11:23:35.238Z,5
2023-03-25T11:24:47.062Z,7
2023-03-25T11:25:53.822Z,8
2023-03-25T11:27:00.682Z,7
2023-03-25T11:28:07.543Z,2
2023-03-25T11:29:17.397Z,2
2023-03-25T11:30:24.215Z,2
2023-03-25T11:31:31.020Z,2
2023-03-25T11:32:37.866Z,2
2023-03-25T11:33:44.545Z,2
2023-03-25T11:34:51.482Z,2
2023-03-25T11:35:58.342Z,2
2023-03-25T11:37:15.235Z,1
2023-03-25T11:38:24.926Z,1
2023-03-25T11:39:31.749Z,1
2023-03-25T11:40:38.520Z,1
2023-03-25T11:41:53.327Z,1
2023-03-25T11:43:00.198Z,1
2023-03-25T11:44:07.084Z,1
2023-03-25T11:45:14.046Z,1
2023-03-25T11:46:23.618Z,1
2023-03-25T11:47:30.373Z,1
2023-03-25T11:48:37.193Z,2
2023-03-25T11:49:44.023Z,2
2023-03-25T11:50:50.833Z,2
2023-03-25T11:51:57.688Z,2
2023-03-25T11:53:09.644Z,2
2023-03-25T11:54:16.458Z,2
2023-03-25T11:55:23.552Z,1
2023-03-25T11:56:31.359Z,1
2023-03-25T11:57:43.214Z,1
2023-03-25T11:58:50.002Z,1
2023-03-25T11:59:56.828Z,2
2023-03-25T12:01:03.743Z,3
2023-03-25T12:02:20.646Z,5
2023-03-25T12:03:32.533Z,2
2023-03-25T12:04:39.272Z,1
2023-03-25T12:05:56.273Z,1
2023-03-25T12:07:08.045Z,1
2023-03-25T12:08:14.845Z,1
2023-03-25T12:09:21.716Z,2
2023-03-25T12:10:28.614Z,1
2023-03-25T12:11:35.373Z,1
2023-03-25T12:12:44.852Z,1
2023-03-25T12:13:51.849Z,1
2023-03-25T12:15:03.681Z,1
2023-03-25T12:16:13.431Z,1
2023-03-25T12:17:25.453Z,3
2023-03-25T12:18:42.372Z,3
2023-03-25T12:19:59.407Z,1
2023-03-25T12:21:16.299Z,1
2023-03-25T12:22:33.217Z,1
2023-03-25T12:23:45.128Z,2
2023-03-25T12:25:02.011Z,2
2023-03-25T12:26:13.862Z,2
2023-03-25T12:27:20.638Z,2
2023-03-25T12:28:35.558Z,2
2023-03-25T12:29:47.380Z,2
2023-03-25T12:31:02.097Z,1
2023-03-25T12:32:13.898Z,1
2023-03-25T12:33:23.789Z,2
2023-03-25T12:34:39.460Z,3
2023-03-25T12:35:48.181Z,3
2023-03-25T12:36:57.730Z,2
2023-03-25T12:38:14.553Z,1
2023-03-25T12:39:32.414Z,1
2023-03-25T12:40:36.053Z,1
2023-03-25T12:41:47.910Z,2
2023-03-25T12:42:57.286Z,2
2023-03-25T12:44:07.112Z,2
2023-03-25T12:45:13.976Z,1
2023-03-25T12:46:30.965Z,2
2023-03-25T12:47:47.966Z,1
2023-03-25T12:48:59.883Z,2
2023-03-25T12:50:06.806Z,2
2023-03-25T12:51:18.670Z,2
2023-03-25T12:52:28.499Z,4
2023-03-25T12:53:45.393Z,3
2023-03-25T12:54:57.403Z,2
2023-03-25T12:56:11.272Z,2
2023-03-25T12:57:21.743Z,4
2023-03-25T12:58:36.117Z,3
2023-03-25T12:59:50.973Z,4
2023-03-25T13:01:02.915Z,5
2023-03-25T13:02:19.796Z,6
2023-03-25T13:03:36.752Z,5
2023-03-25T13:04:51.365Z,3
2023-03-25T13:06:06.204Z,2
2023-03-25T13:07:20.796Z,1
2023-03-25T13:08:35.496Z,2
2023-03-25T13:09:44.944Z,2
2023-03-25T13:11:01.914Z,1
2023-03-25T13:12:13.723Z,2
2023-03-25T13:13:25.619Z,2
2023-03-25T13:14:32.440Z,4
2023-03-25T13:15:39.257Z,3
2023-03-25T13:16:48.984Z,2
2023-03-25T13:17:55.808Z,3
2023-03-25T13:19:05.280Z,2
2023-03-25T13:20:17.120Z,2
2023-03-25T13:21:23.975Z,2
2023-03-25T13:22:35.836Z,2
2023-03-25T13:23:45.428Z,2
2023-03-25T13:24:52.204Z,3
2023-03-25T13:25:59.076Z,2
2023-03-25T13:27:08.908Z,2
2023-03-25T13:28:15.665Z,1
2023-03-25T13:29:27.580Z,1
2023-03-25T13:30:34.412Z,2
2023-03-25T13:31:41.281Z,2
2023-03-25T13:32:48.140Z,2
2023-03-25T13:33:54.831Z,2
2023-03-25T13:35:09.500Z,3
2023-03-25T13:36:24.191Z,3
2023-03-25T13:37:31.055Z,3
2023-03-25T13:38:37.862Z,2
2023-03-25T13:39:52.734Z,5
2023-03-25T13:41:09.683Z,5
2023-03-25T13:42:21.561Z,4
2023-03-25T13:43:31.167Z,3
2023-03-25T13:44:46.016Z,2
2023-03-25T13:45:52.916Z,3
2023-03-25T13:47:04.818Z,3
2023-03-25T13:48:21.713Z,2
2023-03-25T13:49:33.555Z,2
2023-03-25T13:50:40.479Z,1
2023-03-25T13:51:47.239Z,2
2023-03-25T13:52:54.058Z,1
2023-03-25T13:54:04.468Z,4
2023-03-25T13:55:15.834Z,3
2023-03-25T13:56:25.716Z,2
2023-03-25T13:57:42.670Z,2
2023-03-25T13:58:59.489Z,2
2023-03-25T14:00:14.304Z,10
2023-03-25T14:01:31.424Z,4
2023-03-25T14:02:48.361Z,7
2023-03-25T14:04:03.299Z,6
2023-03-25T14:05:20.230Z,4
2023-03-25T14:06:32.032Z,2
2023-03-25T14:07:43.936Z,3
2023-03-25T14:08:50.811Z,3
2023-03-25T14:09:57.628Z,2
2023-03-25T14:11:14.571Z,3
2023-03-25T14:12:28.976Z,2
2023-03-25T14:13:40.908Z,3
2023-03-25T14:14:50.131Z,3
2023-03-25T14:15:56.971Z,4
2023-03-25T14:17:03.730Z,2
2023-03-25T14:18:10.552Z,2
2023-03-25T14:19:19.983Z,2
2023-03-25T14:20:34.559Z,3
2023-03-25T14:21:41.318Z,2
2023-03-25T14:22:48.182Z,2
2023-03-25T14:23:57.577Z,2
2023-03-25T14:25:07.285Z,2
2023-03-25T14:26:24.208Z,2
2023-03-25T14:27:31.007Z,2
2023-03-25T14:28:37.768Z,2
2023-03-25T14:29:44.674Z,2
2023-03-25T14:30:56.513Z,2
2023-03-25T14:32:13.495Z,2
2023-03-25T14:33:20.374Z,3
2023-03-25T14:34:27.170Z,2
2023-03-25T14:35:34.295Z,2
2023-03-25T14:36:43.280Z,2
2023-03-25T14:37:50.136Z,2
2023-03-25T14:38:56.985Z,2
2023-03-25T14:40:03.799Z,3
2023-03-25T14:41:20.751Z,3
2023-03-25T14:42:37.615Z,2
2023-03-25T14:43:54.521Z,3
2023-03-25T14:45:01.369Z,3
2023-03-25T14:46:18.637Z,2
2023-03-25T14:47:25.302Z,3
2023-03-25T14:48:32.142Z,4
2023-03-25T14:49:38.921Z,3
2023-03-25T14:50:55.859Z,3
2023-03-25T14:52:12.811Z,3
2023-03-25T14:53:19.611Z,5
2023-03-25T14:54:26.406Z,4
2023-03-25T14:55:33.204Z,5
2023-03-25T14:56:45.439Z,4
2023-03-25T14:57:57.323Z,42
2023-03-25T14:59:09.267Z,85
2023-03-25T15:00:16.186Z,47
2023-03-25T15:01:28.048Z,24
2023-03-25T15:02:34.896Z,41
2023-03-25T15:03:41.680Z,46
2023-03-25T15:04:48.429Z,14
2023-03-25T15:06:00.315Z,32
2023-03-25T15:07:04.896Z,33
2023-03-25T15:08:11.903Z,11
2023-03-25T15:09:18.936Z,6
2023-03-25T15:10:25.698Z,8
2023-03-25T15:11:32.545Z,5
2023-03-25T15:12:39.339Z,3
2023-03-25T15:13:46.152Z,9
2023-03-25T15:14:53.036Z,15
2023-03-25T15:15:59.967Z,18
2023-03-25T15:17:06.740Z,7
2023-03-25T15:18:13.572Z,13
2023-03-25T15:19:30.500Z,12
2023-03-25T15:20:42.391Z,37
2023-03-25T15:21:49.186Z,19
2023-03-25T15:23:01.082Z,11
2023-03-25T15:24:18.020Z,8
2023-03-25T15:25:24.829Z,10
2023-03-25T15:26:31.665Z,6
2023-03-25T15:27:43.549Z,4
2023-03-25T15:28:52.942Z,3
2023-03-25T15:30:09.801Z,3
2023-03-25T15:31:26.771Z,2
2023-03-25T15:32:38.589Z,2
2023-03-25T15:33:53.972Z,2
2023-03-25T15:34:58.978Z,2
2023-03-25T15:36:14.133Z,2
2023-03-25T15:37:30.507Z,2
2023-03-25T15:38:34.374Z,2
2023-03-25T15:39:47.076Z,2
2023-03-25T15:40:54.672Z,2
2023-03-25T15:42:09.785Z,2
2023-03-25T15:43:24.918Z,2
2023-03-25T15:44:39.969Z,2
2023-03-25T15:45:54.428Z,2
2023-03-25T15:47:13.518Z,10
2023-03-25T15:48:25.640Z,8
2023-03-25T15:49:37.525Z,4
2023-03-25T15:50:52.009Z,8
2023-03-25T15:52:09.008Z,8
2023-03-25T15:53:30.053Z,5
2023-03-25T15:54:38.502Z,8
2023-03-25T15:55:48.130Z,9
2023-03-25T15:56:57.800Z,6
2023-03-25T15:58:04.582Z,4
2023-03-25T15:59:16.461Z,9
2023-03-25T16:00:28.550Z,9
2023-03-25T16:01:38.546Z,8
2023-03-25T16:02:45.438Z,7
2023-03-25T16:03:57.891Z,10
2023-03-25T16:05:09.840Z,9
2023-03-25T16:06:16.753Z,10
2023-03-25T16:07:23.585Z,11
2023-03-25T16:08:30.626Z,9
2023-03-25T16:09:37.453Z,8
2023-03-25T16:10:44.380Z,10
2023-03-25T16:11:51.291Z,13
2023-03-25T16:13:00.979Z,9
2023-03-25T16:14:10.497Z,9
2023-03-25T16:15:17.287Z,8
2023-03-25T16:16:29.346Z,6
2023-03-25T16:17:36.200Z,6
2023-03-25T16:18:42.939Z,5
2023-03-25T16:19:49.711Z,5
2023-03-25T16:20:56.499Z,7
2023-03-25T16:22:03.338Z,6
2023-03-25T16:23:17.704Z,7
2023-03-25T16:24:24.492Z,7
2023-03-25T16:25:31.324Z,6
2023-03-25T16:26:41.128Z,5
2023-03-25T16:27:47.908Z,5
2023-03-25T16:28:54.680Z,5
2023-03-25T16:30:01.573Z,4
2023-03-25T16:31:23.631Z,8
2023-03-25T16:32:33.424Z,5
2023-03-25T16:33:39.977Z,7
2023-03-25T16:34:46.821Z,6
2023-03-25T16:35:53.705Z,38
2023-03-25T16:37:00.372Z,29
2023-03-25T16:38:07.144Z,30
2023-03-25T16:39:19.195Z,19
2023-03-25T16:40:26.027Z,28
2023-03-25T16:41:35.643Z,22
2023-03-25T16:42:42.517Z,31
2023-03-25T16:43:49.355Z,24
2023-03-25T16:44:56.143Z,12
2023-03-25T16:46:05.809Z,10
2023-03-25T16:47:12.530Z,7
2023-03-25T16:48:19.276Z,20
2023-03-25T16:49:31.117Z,15
2023-03-25T16:50:37.894Z,8
2023-03-25T16:51:44.737Z,4
2023-03-25T16:52:51.567Z,7